This is the latest recevied weather packets stored in our database for station/object OE-11272. If no packets are shown the sender has not sent any weather packets the latest 10 day(s).
| Time | Temp. | Humidity | Pressure | Rain* | Wind** | Luminosity | Snow |
|---|---|---|---|---|---|---|---|
| 1788017126 | 22.78° C | 64% | 1014.4 hPa | 0.25 mm | - | 169 W/m² | - |
| 1788016299 | 22.78° C | 65% | 1014.3 hPa | 0.25 mm | - | 144 W/m² | - |
| 1788015926 | 22.78° C | 70% | 1014.3 hPa | 0.25 mm | - | 131 W/m² | - |
| 1788015326 | 22.78° C | 65% | 1014.3 hPa | 0.25 mm | - | 156 W/m² | - |
| 1788014499 | 22.22° C | 64% | 1014.3 hPa | 0.25 mm | - | 175 W/m² | - |
| 1788014126 | 22.78° C | 61% | 1014.2 hPa | 0 mm | - | 187 W/m² | - |
| 1788013525 | 23.33° C | 55% | 1014 hPa | 0 mm | - | 169 W/m² | - |
| 1788012699 | 23.33° C | 57% | 1013.9 hPa | 0 mm | - | 200 W/m² | - |
| 1788012326 | 23.89° C | 56% | 1014 hPa | 0 mm | - | 200 W/m² | - |
| 1788011726 | 23.89° C | 54% | 1013.9 hPa | 0 mm | - | 169 W/m² | - |
| 1788010899 | 24.44° C | 54% | 1014 hPa | 0 mm | - | 175 W/m² | - |
| 1788010526 | 24.44° C | 49% | 1013.9 hPa | 0 mm | - | 250 W/m² | - |
| 1788009925 | 25° C | 47% | 1013.7 hPa | 0 mm | - | 762 W/m² | - |
| 1788009099 | 25° C | 50% | 1013.9 hPa | 0 mm | - | 743 W/m² | - |
| 1788008726 | 24.44° C | 48% | 1014.1 hPa | 0 mm | - | 643 W/m² | - |
| 1788008126 | 24.44° C | 51% | 1014.1 hPa | 0 mm | - | 737 W/m² | - |
| 1788007299 | 24.44° C | 50% | 1014.3 hPa | 0 mm | - | 687 W/m² | - |
| 1788006926 | 23.89° C | 49% | 1014.6 hPa | 0 mm | - | 525 W/m² | - |
| 1788006326 | 23.89° C | 48% | 1014.9 hPa | 0 mm | - | 568 W/m² | - |
| 1788005498 | 23.89° C | 50% | 1014.9 hPa | 0 mm | - | 675 W/m² | - |
| 1788005126 | 23.89° C | 54% | 1015 hPa | 0 mm | - | 612 W/m² | - |
| 1788004526 | 22.78° C | 50% | 1015.2 hPa | 0 mm | - | 412 W/m² | - |
| 1788003699 | 22.78° C | 52% | 1015.4 hPa | 0 mm | - | 306 W/m² | - |
| 1788003326 | 22.22° C | 50% | 1015.5 hPa | 0 mm | - | 287 W/m² | - |
| 1788002726 | 22.78° C | 54% | 1015.5 hPa | 0 mm | - | 369 W/m² | - |
* Rain latest hour (hover to see other rain measurements)
** Current wind speed in m/s (hover to see current wind gust speed)